sensor_id;sensor_type;location;lat;lon;timestamp;P1;durP1;ratioP1;P2;durP2;ratioP2
16310;SDS011;8264;48.510;8.872;2023-07-24T00:01:16;9.33;;;7.50;;
16310;SDS011;8264;48.510;8.872;2023-07-24T00:03:43;9.00;;;6.27;;
16310;SDS011;8264;48.510;8.872;2023-07-24T00:06:10;10.97;;;7.30;;
16310;SDS011;8264;48.510;8.872;2023-07-24T00:08:37;8.10;;;6.97;;
16310;SDS011;8264;48.510;8.872;2023-07-24T00:11:06;9.93;;;7.37;;
16310;SDS011;8264;48.510;8.872;2023-07-24T00:13:34;11.10;;;6.90;;
16310;SDS011;8264;48.510;8.872;2023-07-24T00:16:05;10.93;;;7.13;;
16310;SDS011;8264;48.510;8.872;2023-07-24T00:18:32;8.57;;;6.63;;
16310;SDS011;8264;48.510;8.872;2023-07-24T00:20:59;9.40;;;6.93;;
16310;SDS011;8264;48.510;8.872;2023-07-24T00:23:25;11.60;;;7.13;;
16310;SDS011;8264;48.510;8.872;2023-07-24T00:25:52;11.80;;;6.90;;
16310;SDS011;8264;48.510;8.872;2023-07-24T00:28:18;9.63;;;7.00;;
16310;SDS011;8264;48.510;8.872;2023-07-24T00:30:46;10.37;;;6.67;;
16310;SDS011;8264;48.510;8.872;2023-07-24T00:33:13;9.43;;;7.17;;
16310;SDS011;8264;48.510;8.872;2023-07-24T00:35:39;7.90;;;6.43;;
16310;SDS011;8264;48.510;8.872;2023-07-24T00:38:06;9.07;;;6.80;;
16310;SDS011;8264;48.510;8.872;2023-07-24T00:40:32;9.10;;;6.60;;
16310;SDS011;8264;48.510;8.872;2023-07-24T00:42:59;7.40;;;6.13;;
16310;SDS011;8264;48.510;8.872;2023-07-24T00:45:25;9.60;;;7.03;;
16310;SDS011;8264;48.510;8.872;2023-07-24T00:47:53;7.93;;;6.67;;
16310;SDS011;8264;48.510;8.872;2023-07-24T00:50:20;8.53;;;6.47;;
16310;SDS011;8264;48.510;8.872;2023-07-24T00:52:47;9.20;;;6.93;;
16310;SDS011;8264;48.510;8.872;2023-07-24T00:55:13;11.53;;;6.60;;
16310;SDS011;8264;48.510;8.872;2023-07-24T00:57:41;8.90;;;6.93;;
16310;SDS011;8264;48.510;8.872;2023-07-24T01:00:08;9.17;;;7.00;;
16310;SDS011;8264;48.510;8.872;2023-07-24T01:02:36;9.90;;;7.07;;
16310;SDS011;8264;48.510;8.872;2023-07-24T01:05:04;9.17;;;7.30;;
16310;SDS011;8264;48.510;8.872;2023-07-24T01:07:31;7.97;;;6.23;;
16310;SDS011;8264;48.510;8.872;2023-07-24T01:09:58;8.47;;;6.80;;
16310;SDS011;8264;48.510;8.872;2023-07-24T01:12:27;9.07;;;7.43;;
16310;SDS011;8264;48.510;8.872;2023-07-24T01:14:58;9.30;;;7.60;;
16310;SDS011;8264;48.510;8.872;2023-07-24T01:17:29;9.83;;;7.07;;
16310;SDS011;8264;48.510;8.872;2023-07-24T01:19:58;12.60;;;7.10;;
16310;SDS011;8264;48.510;8.872;2023-07-24T01:22:30;9.37;;;7.20;;
16310;SDS011;8264;48.510;8.872;2023-07-24T01:25:04;13.70;;;7.60;;
16310;SDS011;8264;48.510;8.872;2023-07-24T01:27:33;8.43;;;6.67;;
16310;SDS011;8264;48.510;8.872;2023-07-24T01:29:59;9.83;;;7.27;;
16310;SDS011;8264;48.510;8.872;2023-07-24T01:32:26;11.93;;;7.10;;
16310;SDS011;8264;48.510;8.872;2023-07-24T01:34:52;8.33;;;6.60;;
16310;SDS011;8264;48.510;8.872;2023-07-24T01:37:19;12.97;;;8.43;;
16310;SDS011;8264;48.510;8.872;2023-07-24T01:39:46;13.47;;;7.27;;
16310;SDS011;8264;48.510;8.872;2023-07-24T01:42:13;9.63;;;7.30;;
16310;SDS011;8264;48.510;8.872;2023-07-24T01:44:41;9.70;;;7.70;;
16310;SDS011;8264;48.510;8.872;2023-07-24T01:47:08;11.63;;;7.97;;
16310;SDS011;8264;48.510;8.872;2023-07-24T01:49:35;13.13;;;7.67;;
16310;SDS011;8264;48.510;8.872;2023-07-24T01:52:01;9.70;;;7.40;;
16310;SDS011;8264;48.510;8.872;2023-07-24T01:54:28;11.17;;;7.20;;
16310;SDS011;8264;48.510;8.872;2023-07-24T01:56:54;11.70;;;7.73;;
16310;SDS011;8264;48.510;8.872;2023-07-24T01:59:21;10.07;;;6.83;;
16310;SDS011;8264;48.510;8.872;2023-07-24T02:01:49;11.00;;;7.73;;
16310;SDS011;8264;48.510;8.872;2023-07-24T02:04:15;10.93;;;7.50;;
16310;SDS011;8264;48.510;8.872;2023-07-24T02:06:42;11.20;;;7.80;;
16310;SDS011;8264;48.510;8.872;2023-07-24T02:09:09;9.77;;;7.20;;
16310;SDS011;8264;48.510;8.872;2023-07-24T02:11:36;9.27;;;7.57;;
16310;SDS011;8264;48.510;8.872;2023-07-24T02:14:03;11.33;;;7.53;;
16310;SDS011;8264;48.510;8.872;2023-07-24T02:16:29;8.43;;;6.87;;
16310;SDS011;8264;48.510;8.872;2023-07-24T02:18:57;12.53;;;7.47;;
16310;SDS011;8264;48.510;8.872;2023-07-24T02:21:23;12.30;;;6.93;;
16310;SDS011;8264;48.510;8.872;2023-07-24T02:23:50;11.63;;;7.67;;
16310;SDS011;8264;48.510;8.872;2023-07-24T02:26:16;10.93;;;7.60;;
16310;SDS011;8264;48.510;8.872;2023-07-24T02:28:43;10.90;;;7.67;;
16310;SDS011;8264;48.510;8.872;2023-07-24T02:31:09;10.33;;;7.27;;
16310;SDS011;8264;48.510;8.872;2023-07-24T02:33:36;12.00;;;7.40;;
16310;SDS011;8264;48.510;8.872;2023-07-24T02:36:05;10.47;;;7.83;;
16310;SDS011;8264;48.510;8.872;2023-07-24T02:38:31;10.40;;;7.53;;
16310;SDS011;8264;48.510;8.872;2023-07-24T02:40:58;12.57;;;8.00;;
16310;SDS011;8264;48.510;8.872;2023-07-24T02:43:24;8.10;;;6.43;;
16310;SDS011;8264;48.510;8.872;2023-07-24T02:45:51;10.07;;;7.60;;
16310;SDS011;8264;48.510;8.872;2023-07-24T02:48:17;10.57;;;7.20;;
16310;SDS011;8264;48.510;8.872;2023-07-24T02:50:44;9.33;;;7.43;;
16310;SDS011;8264;48.510;8.872;2023-07-24T02:53:12;11.23;;;7.87;;
16310;SDS011;8264;48.510;8.872;2023-07-24T02:55:41;11.77;;;7.67;;
16310;SDS011;8264;48.510;8.872;2023-07-24T02:58:08;14.00;;;7.83;;
16310;SDS011;8264;48.510;8.872;2023-07-24T03:00:34;10.83;;;7.47;;
16310;SDS011;8264;48.510;8.872;2023-07-24T03:03:01;11.67;;;7.50;;
16310;SDS011;8264;48.510;8.872;2023-07-24T03:05:27;11.40;;;7.63;;
16310;SDS011;8264;48.510;8.872;2023-07-24T03:07:54;12.23;;;7.77;;
16310;SDS011;8264;48.510;8.872;2023-07-24T03:10:22;13.80;;;8.07;;
16310;SDS011;8264;48.510;8.872;2023-07-24T03:12:49;13.23;;;7.90;;
16310;SDS011;8264;48.510;8.872;2023-07-24T03:15:15;9.20;;;7.50;;
16310;SDS011;8264;48.510;8.872;2023-07-24T03:17:42;12.77;;;8.07;;
16310;SDS011;8264;48.510;8.872;2023-07-24T03:20:09;13.77;;;8.43;;
16310;SDS011;8264;48.510;8.872;2023-07-24T03:22:36;10.50;;;8.03;;
16310;SDS011;8264;48.510;8.872;2023-07-24T03:25:02;10.43;;;7.70;;
16310;SDS011;8264;48.510;8.872;2023-07-24T03:27:31;11.63;;;7.87;;
16310;SDS011;8264;48.510;8.872;2023-07-24T03:29:57;14.77;;;8.63;;
16310;SDS011;8264;48.510;8.872;2023-07-24T03:32:24;11.70;;;7.87;;
16310;SDS011;8264;48.510;8.872;2023-07-24T03:34:50;10.63;;;7.83;;
16310;SDS011;8264;48.510;8.872;2023-07-24T03:37:17;12.73;;;7.57;;
16310;SDS011;8264;48.510;8.872;2023-07-24T03:39:44;10.60;;;7.37;;
16310;SDS011;8264;48.510;8.872;2023-07-24T03:42:10;11.97;;;7.93;;
16310;SDS011;8264;48.510;8.872;2023-07-24T03:44:39;11.93;;;7.67;;
16310;SDS011;8264;48.510;8.872;2023-07-24T03:47:05;11.57;;;7.60;;
16310;SDS011;8264;48.510;8.872;2023-07-24T03:49:32;11.40;;;7.90;;
16310;SDS011;8264;48.510;8.872;2023-07-24T03:51:58;9.27;;;7.27;;
16310;SDS011;8264;48.510;8.872;2023-07-24T03:54:25;10.90;;;7.50;;
16310;SDS011;8264;48.510;8.872;2023-07-24T03:56:51;11.77;;;7.93;;
16310;SDS011;8264;48.510;8.872;2023-07-24T03:59:17;9.93;;;7.23;;
16310;SDS011;8264;48.510;8.872;2023-07-24T04:01:45;11.13;;;8.20;;
16310;SDS011;8264;48.510;8.872;2023-07-24T04:04:12;9.87;;;7.70;;
16310;SDS011;8264;48.510;8.872;2023-07-24T04:06:38;10.97;;;7.93;;
16310;SDS011;8264;48.510;8.872;2023-07-24T04:09:05;10.63;;;7.33;;
16310;SDS011;8264;48.510;8.872;2023-07-24T04:11:31;11.30;;;8.03;;
16310;SDS011;8264;48.510;8.872;2023-07-24T04:13:58;13.43;;;8.63;;
16310;SDS011;8264;48.510;8.872;2023-07-24T04:16:24;10.53;;;8.20;;
16310;SDS011;8264;48.510;8.872;2023-07-24T04:18:52;11.80;;;7.57;;
16310;SDS011;8264;48.510;8.872;2023-07-24T04:21:19;10.03;;;7.97;;
16310;SDS011;8264;48.510;8.872;2023-07-24T04:23:45;13.13;;;8.40;;
16310;SDS011;8264;48.510;8.872;2023-07-24T04:26:12;12.30;;;8.07;;
16310;SDS011;8264;48.510;8.872;2023-07-24T04:28:39;9.93;;;7.60;;
16310;SDS011;8264;48.510;8.872;2023-07-24T04:31:05;12.93;;;8.40;;
16310;SDS011;8264;48.510;8.872;2023-07-24T04:33:31;12.77;;;7.97;;
16310;SDS011;8264;48.510;8.872;2023-07-24T04:35:59;8.07;;;6.87;;
16310;SDS011;8264;48.510;8.872;2023-07-24T04:38:26;11.50;;;7.50;;
16310;SDS011;8264;48.510;8.872;2023-07-24T04:40:52;9.87;;;7.53;;
16310;SDS011;8264;48.510;8.872;2023-07-24T04:43:19;10.40;;;7.93;;
16310;SDS011;8264;48.510;8.872;2023-07-24T04:45:45;12.63;;;8.03;;
16310;SDS011;8264;48.510;8.872;2023-07-24T04:48:12;9.20;;;7.40;;
16310;SDS011;8264;48.510;8.872;2023-07-24T04:50:38;10.63;;;7.63;;
16310;SDS011;8264;48.510;8.872;2023-07-24T04:53:06;10.47;;;7.40;;
16310;SDS011;8264;48.510;8.872;2023-07-24T04:55:33;10.30;;;7.70;;
16310;SDS011;8264;48.510;8.872;2023-07-24T04:57:59;8.67;;;7.00;;
16310;SDS011;8264;48.510;8.872;2023-07-24T05:00:26;9.83;;;7.33;;
16310;SDS011;8264;48.510;8.872;2023-07-24T05:02:52;9.57;;;6.73;;
16310;SDS011;8264;48.510;8.872;2023-07-24T05:05:19;9.60;;;7.37;;
16310;SDS011;8264;48.510;8.872;2023-07-24T05:07:45;11.83;;;7.63;;
16310;SDS011;8264;48.510;8.872;2023-07-24T05:10:13;9.70;;;7.33;;
16310;SDS011;8264;48.510;8.872;2023-07-24T05:12:40;12.30;;;7.53;;
16310;SDS011;8264;48.510;8.872;2023-07-24T05:15:06;32.67;;;26.33;;
16310;SDS011;8264;48.510;8.872;2023-07-24T05:17:34;27.87;;;22.00;;
16310;SDS011;8264;48.510;8.872;2023-07-24T05:20:01;13.97;;;10.20;;
16310;SDS011;8264;48.510;8.872;2023-07-24T05:22:28;12.10;;;9.50;;
16310;SDS011;8264;48.510;8.872;2023-07-24T05:24:54;13.03;;;9.93;;
16310;SDS011;8264;48.510;8.872;2023-07-24T05:27:22;13.67;;;9.70;;
16310;SDS011;8264;48.510;8.872;2023-07-24T05:29:49;14.37;;;10.47;;
16310;SDS011;8264;48.510;8.872;2023-07-24T05:32:15;18.07;;;13.47;;
16310;SDS011;8264;48.510;8.872;2023-07-24T05:34:42;18.60;;;15.10;;
16310;SDS011;8264;48.510;8.872;2023-07-24T05:37:08;19.23;;;15.27;;
16310;SDS011;8264;48.510;8.872;2023-07-24T05:39:35;16.83;;;13.47;;
16310;SDS011;8264;48.510;8.872;2023-07-24T05:42:02;16.97;;;13.40;;
16310;SDS011;8264;48.510;8.872;2023-07-24T05:44:30;16.63;;;13.80;;
16310;SDS011;8264;48.510;8.872;2023-07-24T05:46:58;17.17;;;12.17;;
16310;SDS011;8264;48.510;8.872;2023-07-24T05:49:24;14.00;;;10.43;;
16310;SDS011;8264;48.510;8.872;2023-07-24T05:51:51;14.83;;;12.43;;
16310;SDS011;8264;48.510;8.872;2023-07-24T05:54:19;14.93;;;10.50;;
16310;SDS011;8264;48.510;8.872;2023-07-24T05:56:45;12.53;;;10.00;;
16310;SDS011;8264;48.510;8.872;2023-07-24T05:59:12;13.73;;;11.03;;
16310;SDS011;8264;48.510;8.872;2023-07-24T06:01:40;14.97;;;9.60;;
16310;SDS011;8264;48.510;8.872;2023-07-24T06:04:07;9.77;;;7.97;;
16310;SDS011;8264;48.510;8.872;2023-07-24T06:06:33;10.67;;;8.90;;
16310;SDS011;8264;48.510;8.872;2023-07-24T06:09:01;17.37;;;9.60;;
16310;SDS011;8264;48.510;8.872;2023-07-24T06:11:28;12.60;;;8.53;;
16310;SDS011;8264;48.510;8.872;2023-07-24T06:13:54;13.73;;;8.80;;
16310;SDS011;8264;48.510;8.872;2023-07-24T06:16:21;18.83;;;9.17;;
16310;SDS011;8264;48.510;8.872;2023-07-24T06:18:48;15.50;;;8.60;;
16310;SDS011;8264;48.510;8.872;2023-07-24T06:21:15;11.87;;;8.50;;
16310;SDS011;8264;48.510;8.872;2023-07-24T06:23:41;10.50;;;8.60;;
16310;SDS011;8264;48.510;8.872;2023-07-24T06:26:08;11.57;;;7.97;;
16310;SDS011;8264;48.510;8.872;2023-07-24T06:28:34;10.00;;;7.87;;
16310;SDS011;8264;48.510;8.872;2023-07-24T06:31:01;10.40;;;7.93;;
16310;SDS011;8264;48.510;8.872;2023-07-24T06:33:27;10.27;;;7.67;;
16310;SDS011;8264;48.510;8.872;2023-07-24T06:35:55;12.10;;;7.97;;
16310;SDS011;8264;48.510;8.872;2023-07-24T06:38:22;11.53;;;8.33;;
16310;SDS011;8264;48.510;8.872;2023-07-24T06:40:48;10.90;;;8.07;;
16310;SDS011;8264;48.510;8.872;2023-07-24T06:43:15;9.57;;;8.03;;
16310;SDS011;8264;48.510;8.872;2023-07-24T06:45:41;9.87;;;7.93;;
16310;SDS011;8264;48.510;8.872;2023-07-24T06:48:08;11.00;;;8.20;;
16310;SDS011;8264;48.510;8.872;2023-07-24T06:50:34;10.43;;;8.00;;
16310;SDS011;8264;48.510;8.872;2023-07-24T06:53:02;11.57;;;8.03;;
16310;SDS011;8264;48.510;8.872;2023-07-24T06:55:28;9.73;;;7.63;;
16310;SDS011;8264;48.510;8.872;2023-07-24T06:57:55;10.77;;;7.80;;
16310;SDS011;8264;48.510;8.872;2023-07-24T07:00:21;12.40;;;8.23;;
16310;SDS011;8264;48.510;8.872;2023-07-24T07:02:48;10.53;;;7.73;;
16310;SDS011;8264;48.510;8.872;2023-07-24T07:05:14;15.07;;;8.40;;
16310;SDS011;8264;48.510;8.872;2023-07-24T07:07:41;14.97;;;9.83;;
16310;SDS011;8264;48.510;8.872;2023-07-24T07:10:09;20.17;;;15.23;;
16310;SDS011;8264;48.510;8.872;2023-07-24T07:12:36;22.57;;;14.53;;
16310;SDS011;8264;48.510;8.872;2023-07-24T07:15:02;16.63;;;9.53;;
16310;SDS011;8264;48.510;8.872;2023-07-24T07:17:29;13.83;;;8.93;;
16310;SDS011;8264;48.510;8.872;2023-07-24T07:19:56;12.00;;;8.83;;
16310;SDS011;8264;48.510;8.872;2023-07-24T07:22:22;13.67;;;8.93;;
16310;SDS011;8264;48.510;8.872;2023-07-24T07:24:49;13.60;;;9.10;;
16310;SDS011;8264;48.510;8.872;2023-07-24T07:27:17;11.30;;;7.60;;
16310;SDS011;8264;48.510;8.872;2023-07-24T07:29:43;10.40;;;7.80;;
16310;SDS011;8264;48.510;8.872;2023-07-24T07:32:10;12.77;;;7.47;;
16310;SDS011;8264;48.510;8.872;2023-07-24T07:34:36;12.60;;;8.23;;
16310;SDS011;8264;48.510;8.872;2023-07-24T07:37:03;11.20;;;7.70;;
16310;SDS011;8264;48.510;8.872;2023-07-24T07:39:30;11.80;;;8.07;;
16310;SDS011;8264;48.510;8.872;2023-07-24T07:41:57;13.50;;;8.57;;
16310;SDS011;8264;48.510;8.872;2023-07-24T07:44:25;13.13;;;8.30;;
16310;SDS011;8264;48.510;8.872;2023-07-24T07:46:52;13.00;;;8.07;;
16310;SDS011;8264;48.510;8.872;2023-07-24T07:49:18;12.07;;;8.10;;
16310;SDS011;8264;48.510;8.872;2023-07-24T07:51:45;8.90;;;7.30;;
16310;SDS011;8264;48.510;8.872;2023-07-24T07:54:11;12.77;;;7.97;;
16310;SDS011;8264;48.510;8.872;2023-07-24T07:56:38;13.77;;;7.73;;
16310;SDS011;8264;48.510;8.872;2023-07-24T07:59:05;8.33;;;5.77;;
16310;SDS011;8264;48.510;8.872;2023-07-24T08:01:33;8.33;;;5.40;;
16310;SDS011;8264;48.510;8.872;2023-07-24T08:03:59;6.90;;;4.90;;
16310;SDS011;8264;48.510;8.872;2023-07-24T08:06:26;6.87;;;5.40;;
16310;SDS011;8264;48.510;8.872;2023-07-24T08:08:52;6.27;;;4.83;;
16310;SDS011;8264;48.510;8.872;2023-07-24T08:11:19;5.73;;;4.80;;
16310;SDS011;8264;48.510;8.872;2023-07-24T08:13:46;6.07;;;5.03;;
16310;SDS011;8264;48.510;8.872;2023-07-24T08:16:12;6.00;;;4.40;;
16310;SDS011;8264;48.510;8.872;2023-07-24T08:18:44;7.00;;;4.37;;
16310;SDS011;8264;48.510;8.872;2023-07-24T08:21:11;6.97;;;4.80;;
16310;SDS011;8264;48.510;8.872;2023-07-24T08:23:38;7.80;;;4.80;;
16310;SDS011;8264;48.510;8.872;2023-07-24T08:26:05;6.97;;;4.70;;
16310;SDS011;8264;48.510;8.872;2023-07-24T08:28:32;6.70;;;4.90;;
16310;SDS011;8264;48.510;8.872;2023-07-24T08:30:59;13.43;;;4.87;;
16310;SDS011;8264;48.510;8.872;2023-07-24T08:33:27;5.50;;;4.10;;
16310;SDS011;8264;48.510;8.872;2023-07-24T08:36:02;5.53;;;4.53;;
16310;SDS011;8264;48.510;8.872;2023-07-24T08:38:29;9.97;;;4.43;;
16310;SDS011;8264;48.510;8.872;2023-07-24T08:41:02;6.33;;;4.60;;
16310;SDS011;8264;48.510;8.872;2023-07-24T08:43:29;5.97;;;4.63;;
16310;SDS011;8264;48.510;8.872;2023-07-24T08:45:56;5.73;;;4.13;;
16310;SDS011;8264;48.510;8.872;2023-07-24T08:48:23;8.37;;;4.83;;
16310;SDS011;8264;48.510;8.872;2023-07-24T08:50:50;5.87;;;4.60;;
16310;SDS011;8264;48.510;8.872;2023-07-24T08:53:18;6.97;;;4.63;;
16310;SDS011;8264;48.510;8.872;2023-07-24T08:55:45;6.87;;;4.90;;
16310;SDS011;8264;48.510;8.872;2023-07-24T08:58:14;6.93;;;5.00;;
16310;SDS011;8264;48.510;8.872;2023-07-24T09:00:41;5.63;;;4.60;;
16310;SDS011;8264;48.510;8.872;2023-07-24T09:03:08;5.50;;;4.90;;
16310;SDS011;8264;48.510;8.872;2023-07-24T09:05:34;7.00;;;5.40;;
16310;SDS011;8264;48.510;8.872;2023-07-24T09:08:01;6.00;;;5.40;;
16310;SDS011;8264;48.510;8.872;2023-07-24T09:10:29;6.87;;;5.33;;
16310;SDS011;8264;48.510;8.872;2023-07-24T09:12:55;7.07;;;5.50;;
16310;SDS011;8264;48.510;8.872;2023-07-24T09:15:22;7.43;;;5.37;;
16310;SDS011;8264;48.510;8.872;2023-07-24T09:17:49;7.53;;;5.47;;
16310;SDS011;8264;48.510;8.872;2023-07-24T09:20:16;9.10;;;5.60;;
16310;SDS011;8264;48.510;8.872;2023-07-24T09:22:47;5.87;;;5.27;;
16310;SDS011;8264;48.510;8.872;2023-07-24T09:25:15;5.60;;;4.90;;
16310;SDS011;8264;48.510;8.872;2023-07-24T09:27:43;9.73;;;5.27;;
16310;SDS011;8264;48.510;8.872;2023-07-24T09:30:11;6.97;;;5.67;;
16310;SDS011;8264;48.510;8.872;2023-07-24T09:32:39;6.47;;;5.43;;
16310;SDS011;8264;48.510;8.872;2023-07-24T09:35:15;7.07;;;5.70;;
16310;SDS011;8264;48.510;8.872;2023-07-24T09:37:42;8.93;;;5.47;;
16310;SDS011;8264;48.510;8.872;2023-07-24T09:40:09;7.00;;;5.60;;
16310;SDS011;8264;48.510;8.872;2023-07-24T09:42:37;5.97;;;5.07;;
16310;SDS011;8264;48.510;8.872;2023-07-24T09:45:07;7.33;;;5.57;;
16310;SDS011;8264;48.510;8.872;2023-07-24T09:47:34;7.07;;;5.17;;
16310;SDS011;8264;48.510;8.872;2023-07-24T09:50:02;6.17;;;5.50;;
16310;SDS011;8264;48.510;8.872;2023-07-24T09:52:30;9.07;;;5.80;;
16310;SDS011;8264;48.510;8.872;2023-07-24T09:57:43;6.60;;;5.70;;
16310;SDS011;8264;48.510;8.872;2023-07-24T10:00:13;12.37;;;9.90;;
16310;SDS011;8264;48.510;8.872;2023-07-24T10:02:43;10.27;;;6.23;;
16310;SDS011;8264;48.510;8.872;2023-07-24T10:05:13;8.10;;;5.70;;
16310;SDS011;8264;48.510;8.872;2023-07-24T10:07:45;7.97;;;5.67;;
16310;SDS011;8264;48.510;8.872;2023-07-24T10:10:15;8.00;;;6.23;;
16310;SDS011;8264;48.510;8.872;2023-07-24T10:12:52;9.57;;;6.37;;
16310;SDS011;8264;48.510;8.872;2023-07-24T10:19:14;8.53;;;7.00;;
16310;SDS011;8264;48.510;8.872;2023-07-24T10:21:46;9.30;;;6.20;;
16310;SDS011;8264;48.510;8.872;2023-07-24T10:24:20;14.00;;;6.47;;
16310;SDS011;8264;48.510;8.872;2023-07-24T10:26:50;10.97;;;5.83;;
16310;SDS011;8264;48.510;8.872;2023-07-24T10:32:45;11.80;;;6.73;;
16310;SDS011;8264;48.510;8.872;2023-07-24T10:35:13;7.13;;;5.87;;
16310;SDS011;8264;48.510;8.872;2023-07-24T10:37:43;10.30;;;6.20;;
16310;SDS011;8264;48.510;8.872;2023-07-24T10:40:22;12.17;;;6.50;;
16310;SDS011;8264;48.510;8.872;2023-07-24T10:43:00;10.93;;;6.23;;
16310;SDS011;8264;48.510;8.872;2023-07-24T10:45:37;10.47;;;6.30;;
16310;SDS011;8264;48.510;8.872;2023-07-24T10:48:26;10.77;;;6.07;;
16310;SDS011;8264;48.510;8.872;2023-07-24T10:53:54;6.93;;;5.27;;
16310;SDS011;8264;48.510;8.872;2023-07-24T10:56:23;8.57;;;5.90;;
16310;SDS011;8264;48.510;8.872;2023-07-24T10:58:50;8.53;;;5.73;;
16310;SDS011;8264;48.510;8.872;2023-07-24T11:04:25;8.53;;;5.47;;
16310;SDS011;8264;48.510;8.872;2023-07-24T11:07:15;9.70;;;6.60;;
16310;SDS011;8264;48.510;8.872;2023-07-24T11:10:27;8.37;;;5.63;;
16310;SDS011;8264;48.510;8.872;2023-07-24T11:13:18;6.83;;;5.20;;
16310;SDS011;8264;48.510;8.872;2023-07-24T11:16:24;16.97;;;12.60;;
16310;SDS011;8264;48.510;8.872;2023-07-24T11:19:10;10.43;;;7.13;;
16310;SDS011;8264;48.510;8.872;2023-07-24T11:24:57;7.87;;;6.40;;
16310;SDS011;8264;48.510;8.872;2023-07-24T11:30:32;8.43;;;6.33;;
16310;SDS011;8264;48.510;8.872;2023-07-24T11:33:00;8.40;;;5.87;;
16310;SDS011;8264;48.510;8.872;2023-07-24T11:35:29;10.97;;;7.07;;
16310;SDS011;8264;48.510;8.872;2023-07-24T11:38:03;9.87;;;6.53;;
16310;SDS011;8264;48.510;8.872;2023-07-24T11:40:31;8.23;;;5.87;;
16310;SDS011;8264;48.510;8.872;2023-07-24T11:45:59;10.03;;;6.07;;
16310;SDS011;8264;48.510;8.872;2023-07-24T11:49:04;7.57;;;5.10;;
16310;SDS011;8264;48.510;8.872;2023-07-24T11:52:09;6.57;;;5.03;;
16310;SDS011;8264;48.510;8.872;2023-07-24T11:54:35;7.73;;;5.70;;
16310;SDS011;8264;48.510;8.872;2023-07-24T11:57:02;9.37;;;5.67;;
16310;SDS011;8264;48.510;8.872;2023-07-24T11:59:36;7.23;;;5.33;;
16310;SDS011;8264;48.510;8.872;2023-07-24T12:02:05;8.47;;;5.87;;
16310;SDS011;8264;48.510;8.872;2023-07-24T12:04:35;6.40;;;5.30;;
16310;SDS011;8264;48.510;8.872;2023-07-24T12:07:03;6.57;;;5.17;;
16310;SDS011;8264;48.510;8.872;2023-07-24T12:09:33;7.53;;;4.83;;
16310;SDS011;8264;48.510;8.872;2023-07-24T12:12:00;7.43;;;5.20;;
16310;SDS011;8264;48.510;8.872;2023-07-24T12:14:29;12.50;;;10.33;;
16310;SDS011;8264;48.510;8.872;2023-07-24T12:17:00;8.17;;;5.03;;
16310;SDS011;8264;48.510;8.872;2023-07-24T12:19:28;7.97;;;5.00;;
16310;SDS011;8264;48.510;8.872;2023-07-24T12:21:55;7.57;;;4.90;;
16310;SDS011;8264;48.510;8.872;2023-07-24T12:24:21;9.27;;;5.20;;
16310;SDS011;8264;48.510;8.872;2023-07-24T12:26:48;8.07;;;4.60;;
16310;SDS011;8264;48.510;8.872;2023-07-24T12:29:14;6.07;;;4.40;;
16310;SDS011;8264;48.510;8.872;2023-07-24T12:31:41;5.83;;;4.60;;
16310;SDS011;8264;48.510;8.872;2023-07-24T12:34:07;6.20;;;4.47;;
16310;SDS011;8264;48.510;8.872;2023-07-24T12:36:35;6.30;;;5.00;;
16310;SDS011;8264;48.510;8.872;2023-07-24T12:39:02;25.43;;;22.80;;
16310;SDS011;8264;48.510;8.872;2023-07-24T12:41:28;6.80;;;4.63;;
16310;SDS011;8264;48.510;8.872;2023-07-24T12:43:55;5.57;;;4.90;;
16310;SDS011;8264;48.510;8.872;2023-07-24T12:46:21;6.03;;;4.17;;
16310;SDS011;8264;48.510;8.872;2023-07-24T12:48:48;6.43;;;4.83;;
16310;SDS011;8264;48.510;8.872;2023-07-24T12:51:14;7.67;;;4.23;;
16310;SDS011;8264;48.510;8.872;2023-07-24T12:53:42;5.27;;;4.37;;
16310;SDS011;8264;48.510;8.872;2023-07-24T12:56:09;7.50;;;4.03;;
16310;SDS011;8264;48.510;8.872;2023-07-24T12:58:35;5.93;;;3.90;;
16310;SDS011;8264;48.510;8.872;2023-07-24T13:01:02;4.53;;;4.13;;
16310;SDS011;8264;48.510;8.872;2023-07-24T13:03:28;5.20;;;3.80;;
16310;SDS011;8264;48.510;8.872;2023-07-24T13:05:55;5.40;;;3.70;;
16310;SDS011;8264;48.510;8.872;2023-07-24T13:08:21;4.90;;;4.40;;
16310;SDS011;8264;48.510;8.872;2023-07-24T13:10:50;9.10;;;4.20;;
16310;SDS011;8264;48.510;8.872;2023-07-24T13:13:17;5.50;;;4.40;;
16310;SDS011;8264;48.510;8.872;2023-07-24T13:15:43;4.97;;;3.83;;
16310;SDS011;8264;48.510;8.872;2023-07-24T13:18:10;6.47;;;3.70;;
16310;SDS011;8264;48.510;8.872;2023-07-24T13:20:39;3.90;;;3.50;;
16310;SDS011;8264;48.510;8.872;2023-07-24T13:23:05;5.97;;;3.60;;
16310;SDS011;8264;48.510;8.872;2023-07-24T13:25:32;4.57;;;3.77;;
16310;SDS011;8264;48.510;8.872;2023-07-24T13:28:00;6.17;;;3.83;;
16310;SDS011;8264;48.510;8.872;2023-07-24T13:30:30;3.80;;;3.43;;
16310;SDS011;8264;48.510;8.872;2023-07-24T13:32:57;5.57;;;3.97;;
16310;SDS011;8264;48.510;8.872;2023-07-24T13:35:23;4.13;;;3.60;;
16310;SDS011;8264;48.510;8.872;2023-07-24T13:37:50;4.07;;;3.27;;
16310;SDS011;8264;48.510;8.872;2023-07-24T13:40:16;4.60;;;3.80;;
16310;SDS011;8264;48.510;8.872;2023-07-24T13:42:43;4.03;;;3.47;;
16310;SDS011;8264;48.510;8.872;2023-07-24T13:45:11;3.87;;;3.37;;
16310;SDS011;8264;48.510;8.872;2023-07-24T13:47:37;4.53;;;3.60;;
16310;SDS011;8264;48.510;8.872;2023-07-24T13:50:05;5.37;;;3.80;;
16310;SDS011;8264;48.510;8.872;2023-07-24T13:52:32;5.47;;;3.70;;
16310;SDS011;8264;48.510;8.872;2023-07-24T13:54:59;7.30;;;6.60;;
16310;SDS011;8264;48.510;8.872;2023-07-24T13:57:26;5.23;;;3.60;;
16310;SDS011;8264;48.510;8.872;2023-07-24T13:59:52;4.97;;;3.87;;
16310;SDS011;8264;48.510;8.872;2023-07-24T14:02:20;6.17;;;3.60;;
16310;SDS011;8264;48.510;8.872;2023-07-24T14:04:47;4.90;;;3.70;;
16310;SDS011;8264;48.510;8.872;2023-07-24T14:07:14;4.70;;;3.60;;
16310;SDS011;8264;48.510;8.872;2023-07-24T14:09:40;4.70;;;4.13;;
16310;SDS011;8264;48.510;8.872;2023-07-24T14:12:07;5.67;;;3.63;;
16310;SDS011;8264;48.510;8.872;2023-07-24T14:14:34;4.17;;;3.60;;
16310;SDS011;8264;48.510;8.872;2023-07-24T14:17:01;4.43;;;3.57;;
16310;SDS011;8264;48.510;8.872;2023-07-24T14:19:29;4.23;;;3.57;;
16310;SDS011;8264;48.510;8.872;2023-07-24T14:21:55;3.57;;;3.27;;
16310;SDS011;8264;48.510;8.872;2023-07-24T14:24:22;4.27;;;3.30;;
16310;SDS011;8264;48.510;8.872;2023-07-24T14:26:49;6.10;;;3.60;;
16310;SDS011;8264;48.510;8.872;2023-07-24T14:29:15;3.50;;;3.20;;
16310;SDS011;8264;48.510;8.872;2023-07-24T14:31:43;3.50;;;3.10;;
16310;SDS011;8264;48.510;8.872;2023-07-24T14:34:09;4.43;;;3.13;;
16310;SDS011;8264;48.510;8.872;2023-07-24T14:36:39;3.90;;;2.97;;
16310;SDS011;8264;48.510;8.872;2023-07-24T14:39:05;3.27;;;2.90;;
16310;SDS011;8264;48.510;8.872;2023-07-24T14:41:32;4.03;;;3.00;;
16310;SDS011;8264;48.510;8.872;2023-07-24T14:43:59;4.87;;;3.23;;
16310;SDS011;8264;48.510;8.872;2023-07-24T14:46:25;4.33;;;3.07;;
16310;SDS011;8264;48.510;8.872;2023-07-24T14:48:52;3.47;;;2.90;;
16310;SDS011;8264;48.510;8.872;2023-07-24T14:51:19;3.30;;;2.93;;
16310;SDS011;8264;48.510;8.872;2023-07-24T14:53:47;4.27;;;3.23;;
16310;SDS011;8264;48.510;8.872;2023-07-24T14:56:13;5.73;;;3.63;;
16310;SDS011;8264;48.510;8.872;2023-07-24T14:58:40;3.90;;;3.20;;
16310;SDS011;8264;48.510;8.872;2023-07-24T15:01:10;3.80;;;2.97;;
16310;SDS011;8264;48.510;8.872;2023-07-24T15:03:36;4.47;;;2.87;;
16310;SDS011;8264;48.510;8.872;2023-07-24T15:06:03;4.33;;;3.93;;
16310;SDS011;8264;48.510;8.872;2023-07-24T15:08:31;3.80;;;3.00;;
16310;SDS011;8264;48.510;8.872;2023-07-24T15:10:59;3.40;;;3.00;;
16310;SDS011;8264;48.510;8.872;2023-07-24T15:13:26;3.63;;;3.33;;
16310;SDS011;8264;48.510;8.872;2023-07-24T15:15:52;3.80;;;3.10;;
16310;SDS011;8264;48.510;8.872;2023-07-24T15:18:19;7.37;;;3.27;;
16310;SDS011;8264;48.510;8.872;2023-07-24T15:20:46;4.00;;;3.40;;
16310;SDS011;8264;48.510;8.872;2023-07-24T15:23:12;4.03;;;3.30;;
16310;SDS011;8264;48.510;8.872;2023-07-24T15:25:39;5.10;;;3.40;;